Time;durP1;ratioP1;P1;durP2;ratioP2;P2;SDS_P1;SDS_P2;PMS_P1;PMS_P2;Temp;Humidity;BMP_temperature;BMP_pressure;BME280_temperature;BME280_humidity;BME280_pressure;Samples;Min_cycle;Max_cycle;Signal;HPM_P1;HPM_P2
2024/02/18 00:07:22;;;;;;;4.4;2.1;;;;;;;5.48;81.77;;;;;
2024/02/18 00:17:22;;;;;;;6.7;3.1;;;;;;;5.35;82.02;;;;;
2024/02/18 00:28:21;;;;;;;6.7;3.1;;;;;;;5.52;82.11;;;;;
2024/02/18 00:38:21;;;;;;;6.7;3.1;;;;;;;5.56;81.83;;;;;
2024/02/18 00:49:21;;;;;;;7.4;3.1;;;;;;;5.67;81.54;;;;;
2024/02/18 00:59:22;;;;;;;7.4;3.1;;;;;;;5.72;81.12;;;;;
2024/02/18 01:09:22;;;;;;;7.4;3.1;;;;;;;5.74;81.1;;;;;
2024/02/18 01:20:21;;;;;;;7.9;3.9;;;;;;;5.79;80.76;;;;;
2024/02/18 01:30:21;;;;;;;7.9;3.9;;;;;;;5.75;80.45;;;;;
2024/02/18 01:41:22;;;;;;;6.7;3.3;;;;;;;5.73;79.78;;;;;
2024/02/18 01:51:21;;;;;;;6.7;3.3;;;;;;;5.65;79.71;;;;;
2024/02/18 02:02:21;;;;;;;6.7;3.3;;;;;;;5.63;79.33;;;;;
2024/02/18 02:12:21;;;;;;;6.8;3.5;;;;;;;5.64;78.64;;;;;
2024/02/18 02:23:21;;;;;;;6.8;3.5;;;;;;;5.6;78.55;;;;;
2024/02/18 02:33:21;;;;;;;6.8;3.5;;;;;;;5.41;78.39;;;;;
2024/02/18 02:44:21;;;;;;;5.1;3;;;;;;;5.4;77.98;;;;;
2024/02/18 02:54:22;;;;;;;5.1;3;;;;;;;5.32;77.32;;;;;
2024/02/18 03:04:22;;;;;;;5.1;3;;;;;;;5.25;77.62;;;;;
2024/02/18 03:15:21;;;;;;;6.1;3.4;;;;;;;5.1;76.63;;;;;
2024/02/18 03:26:21;;;;;;;6.1;3.4;;;;;;;5.14;76.04;;;;;
2024/02/18 03:37:21;;;;;;;6.1;3.4;;;;;;;5.09;75.64;;;;;
2024/02/18 03:48:21;;;;;;;5.6;2.6;;;;;;;5.04;75.39;;;;;
2024/02/18 03:59:21;;;;;;;5.6;2.6;;;;;;;5.07;75.02;;;;;
2024/02/18 04:09:22;;;;;;;5.6;2.6;;;;;;;5.07;74.07;;;;;
2024/02/18 04:20:21;;;;;;;4.7;2.7;;;;;;;5.14;73.84;;;;;
2024/02/18 04:30:21;;;;;;;4.7;2.7;;;;;;;5.1;73.22;;;;;
2024/02/18 04:40:22;;;;;;;6.9;2.4;;;;;;;5.15;73.2;;;;;
2024/02/18 04:51:22;;;;;;;6.9;2.4;;;;;;;5.16;73.45;;;;;
2024/02/18 05:02:22;;;;;;;6.9;2.4;;;;;;;5.18;74.01;;;;;
2024/02/18 05:12:22;;;;;;;4.9;2.2;;;;;;;5.14;73.53;;;;;
2024/02/18 05:23:22;;;;;;;4.9;2.2;;;;;;;5.11;74.09;;;;;
2024/02/18 05:34:22;;;;;;;4.9;2.2;;;;;;;5.16;74.28;;;;;
2024/02/18 05:45:30;;;;;;;5.5;3.5;;;;;;;5.19;75.16;;;;;
2024/02/18 05:56:22;;;;;;;5.5;3.5;;;;;;;5.11;75.89;;;;;
2024/02/18 06:07:22;;;;;;;5.5;3.5;;;;;;;5.14;76.62;;;;;
2024/02/18 06:18:22;;;;;;;6.9;3.4;;;;;;;5.15;77.33;;;;;
2024/02/18 06:28:22;;;;;;;6.9;3.4;;;;;;;5.22;77.84;;;;;
2024/02/18 06:39:22;;;;;;;9.1;4.4;;;;;;;5.21;77.92;;;;;
2024/02/18 06:49:22;;;;;;;9.1;4.4;;;;;;;5.27;77.73;;;;;
2024/02/18 06:59:22;;;;;;;9.1;4.4;;;;;;;5.44;78.01;;;;;
2024/02/18 07:09:22;;;;;;;11.6;6.5;;;;;;;5.54;77.59;;;;;
2024/02/18 07:20:22;;;;;;;11.6;6.5;;;;;;;5.84;77.04;;;;;
2024/02/18 07:30:22;;;;;;;11.6;6.5;;;;;;;6.02;76.84;;;;;
2024/02/18 07:40:22;;;;;;;10.2;5.9;;;;;;;6.27;74.89;;;;;
2024/02/18 07:51:22;;;;;;;10.2;5.9;;;;;;;6.43;73.25;;;;;
2024/02/18 08:01:22;;;;;;;10.2;5.9;;;;;;;6.25;67.2;;;;;
2024/02/18 08:11:22;;;;;;;7.1;4;;;;;;;6.27;66.1;;;;;
2024/02/18 08:21:22;;;;;;;7.1;4;;;;;;;6.33;64.24;;;;;
2024/02/18 08:32:22;;;;;;;7.1;4;;;;;;;6.62;64.01;;;;;
2024/02/18 08:43:22;;;;;;;5;2.7;;;;;;;6.85;63.55;;;;;
2024/02/18 08:53:22;;;;;;;5;2.7;;;;;;;6.92;63.69;;;;;
2024/02/18 09:03:22;;;;;;;5;2.7;;;;;;;7.11;63.07;;;;;
2024/02/18 09:13:22;;;;;;;6.5;3.2;;;;;;;7.27;62.64;;;;;
2024/02/18 09:23:22;;;;;;;6.5;3.2;;;;;;;7.39;62.14;;;;;
2024/02/18 09:34:22;;;;;;;6.5;3.2;;;;;;;7.49;60.92;;;;;
2024/02/18 09:44:22;;;;;;;7.2;3.6;;;;;;;7.94;61.6;;;;;
2024/02/18 09:54:22;;;;;;;7.2;3.6;;;;;;;7.69;57.99;;;;;
2024/02/18 10:05:22;;;;;;;7.2;3.6;;;;;;;7.66;58.23;;;;;
2024/02/18 10:15:22;;;;;;;8.6;4.9;;;;;;;7.69;59.11;;;;;
2024/02/18 10:25:22;;;;;;;8.6;4.9;;;;;;;7.85;58.8;;;;;
2024/02/18 10:35:22;;;;;;;8.6;4.9;;;;;;;7.54;58.73;;;;;
2024/02/18 10:45:22;;;;;;;9.4;4.8;;;;;;;7.78;56.9;;;;;
2024/02/18 10:55:22;;;;;;;9.4;4.8;;;;;;;8.02;58.36;;;;;
2024/02/18 11:05:22;;;;;;;9.4;4.8;;;;;;;7.78;57.05;;;;;
2024/02/18 11:16:23;;;;;;;7.9;4.6;;;;;;;7.66;57.28;;;;;
2024/02/18 11:27:22;;;;;;;7.9;4.6;;;;;;;7.73;56.9;;;;;
2024/02/18 11:37:24;;;;;;;7.9;4.6;;;;;;;8.49;57.75;;;;;
2024/02/18 11:47:22;;;;;;;7.5;4;;;;;;;8.65;55.26;;;;;
2024/02/18 11:58:22;;;;;;;7.5;4;;;;;;;7.9;56.54;;;;;
2024/02/18 12:09:25;;;;;;;10.2;5;;;;;;;8.03;56.14;;;;;
2024/02/18 12:20:22;;;;;;;10.2;5;;;;;;;7.85;58.21;;;;;
2024/02/18 12:31:23;;;;;;;10.2;5;;;;;;;7.98;56.42;;;;;
2024/02/18 12:42:22;;;;;;;9.6;5.4;;;;;;;7.86;56.65;;;;;
2024/02/18 12:53:22;;;;;;;9.6;5.4;;;;;;;8.45;56.81;;;;;
2024/02/18 13:03:22;;;;;;;9.6;5.4;;;;;;;8.81;56.93;;;;;
2024/02/18 13:14:22;;;;;;;8.6;4.5;;;;;;;8.8;55.15;;;;;
2024/02/18 13:24:22;;;;;;;8.6;4.5;;;;;;;8.78;54.28;;;;;
2024/02/18 13:35:22;;;;;;;8.6;4.5;;;;;;;8.21;57.05;;;;;
2024/02/18 13:45:22;;;;;;;11.3;5;;;;;;;8.23;56.47;;;;;
2024/02/18 13:56:22;;;;;;;11.3;5;;;;;;;8.3;55.6;;;;;
2024/02/18 14:07:23;;;;;;;11.3;5;;;;;;;8.12;55.64;;;;;
2024/02/18 14:17:22;;;;;;;10.3;5.7;;;;;;;8.16;56.16;;;;;
2024/02/18 14:28:22;;;;;;;10.3;5.7;;;;;;;7.76;57.87;;;;;
2024/02/18 14:39:22;;;;;;;11.1;7.5;;;;;;;7.82;58.89;;;;;
2024/02/18 14:49:22;;;;;;;11.1;7.5;;;;;;;7.58;58.43;;;;;
2024/02/18 15:00:22;;;;;;;11.1;7.5;;;;;;;7.24;61.22;;;;;
2024/02/18 15:11:22;;;;;;;9;4.7;;;;;;;6.88;62.1;;;;;
2024/02/18 15:22:22;;;;;;;9;4.7;;;;;;;6.66;63.18;;;;;
2024/02/18 15:32:22;;;;;;;9;4.7;;;;;;;6.15;64.81;;;;;
2024/02/18 15:42:22;;;;;;;12.3;7.5;;;;;;;5.72;66.82;;;;;
2024/02/18 15:53:22;;;;;;;12.3;7.5;;;;;;;5.16;68.83;;;;;
2024/02/18 16:03:22;;;;;;;12.3;7.5;;;;;;;4.7;70.1;;;;;
2024/02/18 16:14:22;;;;;;;14.4;8.6;;;;;;;4.12;72.49;;;;;
2024/02/18 16:24:22;;;;;;;14.4;8.6;;;;;;;3.85;73.61;;;;;
2024/02/18 16:34:22;;;;;;;14.4;8.6;;;;;;;3.67;73.97;;;;;
2024/02/18 16:44:23;;;;;;;15.7;8.6;;;;;;;3.54;74.24;;;;;
2024/02/18 16:54:22;;;;;;;15.7;8.6;;;;;;;3.34;75.94;;;;;
2024/02/18 17:04:22;;;;;;;15.7;8.6;;;;;;;3.19;76.59;;;;;
2024/02/18 17:15:22;;;;;;;23.1;13.9;;;;;;;2.92;77.43;;;;;
2024/02/18 17:25:22;;;;;;;23.1;13.9;;;;;;;2.78;77.76;;;;;
2024/02/18 17:35:22;;;;;;;23.1;13.9;;;;;;;2.56;78.07;;;;;
2024/02/18 17:46:22;;;;;;;20.6;11.2;;;;;;;2.31;78.75;;;;;
2024/02/18 17:56:22;;;;;;;20.6;11.2;;;;;;;2.12;79.25;;;;;
2024/02/18 18:06:22;;;;;;;20.6;11.2;;;;;;;2;79.18;;;;;
2024/02/18 18:16:22;;;;;;;18.7;10.1;;;;;;;1.81;79.69;;;;;
2024/02/18 18:27:22;;;;;;;18.7;10.1;;;;;;;1.73;80.06;;;;;
2024/02/18 18:38:25;;;;;;;20.4;12;;;;;;;1.55;79.67;;;;;
2024/02/18 18:49:22;;;;;;;20.4;12;;;;;;;1.33;80.41;;;;;
2024/02/18 18:59:22;;;;;;;20.4;12;;;;;;;1.09;80.6;;;;;
2024/02/18 19:10:22;;;;;;;23.9;12.7;;;;;;;0.83;82.38;;;;;
2024/02/18 19:21:22;;;;;;;23.9;12.7;;;;;;;0.73;82.89;;;;;
2024/02/18 19:31:22;;;;;;;23.9;12.7;;;;;;;0.69;82.83;;;;;
2024/02/18 19:42:22;;;;;;;27.8;13.3;;;;;;;0.56;82.61;;;;;
2024/02/18 19:53:24;;;;;;;27.8;13.3;;;;;;;0.29;84.84;;;;;
2024/02/18 20:04:23;;;;;;;27.8;13.3;;;;;;;0.3;84.88;;;;;
2024/02/18 20:15:22;;;;;;;22.9;14.6;;;;;;;0.26;84.48;;;;;
2024/02/18 20:25:22;;;;;;;22.9;14.6;;;;;;;0.1;85.01;;;;;
2024/02/18 20:36:22;;;;;;;22.9;14.6;;;;;;;-0.03;86.17;;;;;
2024/02/18 20:47:22;;;;;;;33.3;16.9;;;;;;;-0.02;85.75;;;;;
2024/02/18 20:58:22;;;;;;;33.3;16.9;;;;;;;-0.17;86.88;;;;;
2024/02/18 21:09:22;;;;;;;24.6;14.7;;;;;;;-0.14;86.07;;;;;
2024/02/18 21:19:22;;;;;;;24.6;14.7;;;;;;;-0.26;86.3;;;;;
2024/02/18 21:29:22;;;;;;;24.6;14.7;;;;;;;-0.33;86.19;;;;;
2024/02/18 21:40:22;;;;;;;25.8;16;;;;;;;-0.38;85.64;;;;;
2024/02/18 21:50:22;;;;;;;25.8;16;;;;;;;-0.51;85.32;;;;;
2024/02/18 22:00:22;;;;;;;25.8;16;;;;;;;-0.67;85.25;;;;;
2024/02/18 22:11:22;;;;;;;21.4;12;;;;;;;-0.84;85.9;;;;;
2024/02/18 22:22:22;;;;;;;21.4;12;;;;;;;-0.92;86.46;;;;;
2024/02/18 22:33:22;;;;;;;21.4;12;;;;;;;-0.99;86.05;;;;;
2024/02/18 22:43:22;;;;;;;24.2;13.5;;;;;;;-1.06;85.95;;;;;
2024/02/18 22:54:22;;;;;;;24.2;13.5;;;;;;;-1.18;85.95;;;;;
2024/02/18 23:05:22;;;;;;;24.2;13.5;;;;;;;-1.3;86.2;;;;;
2024/02/18 23:16:22;;;;;;;21.4;13.9;;;;;;;-1.42;86.91;;;;;
2024/02/18 23:27:22;;;;;;;21.4;13.9;;;;;;;-1.37;86.78;;;;;
2024/02/18 23:37:22;;;;;;;23;12.7;;;;;;;-1.39;87.28;;;;;
2024/02/18 23:48:22;;;;;;;23;12.7;;;;;;;-1.4;87.24;;;;;
2024/02/18 23:59:22;;;;;;;23;12.7;;;;;;;-1.45;87.29;;;;;
